Time;durP1;ratioP1;P1;durP2;ratioP2;P2;SDS_P1;SDS_P2;PMS_P1;PMS_P2;Temp;Humidity;BMP_temperature;BMP_pressure;BME280_temperature;BME280_humidity;BME280_pressure;Samples;Min_cycle;Max_cycle;Signal;HPM_P1;HPM_P2
2024/02/04 00:00:30;;;;;;;19.25;14.02;;;;;;;9.10;100.00;102086.94;5088650;28;20097;-56
2024/02/04 00:02:58;;;;;;;18.70;12.65;;;;;;;9.11;100.00;102097.38;5090151;28;20562;-57
2024/02/04 00:05:26;;;;;;;22.73;14.30;;;;;;;9.11;100.00;102093.91;5093260;28;20479;-57
2024/02/04 00:07:57;;;;;;;22.10;13.55;;;;;;;9.10;100.00;102106.16;5093337;28;20487;-57
2024/02/04 00:10:26;;;;;;;18.70;12.73;;;;;;;9.09;100.00;102095.72;5077526;28;20080;-56
2024/02/04 00:12:55;;;;;;;19.58;13.00;;;;;;;9.06;100.00;102101.94;5068953;28;20159;-56
2024/02/04 00:15:24;;;;;;;17.40;11.55;;;;;;;9.07;100.00;102102.81;5070467;28;20123;-57
2024/02/04 00:17:53;;;;;;;18.63;12.30;;;;;;;9.08;100.00;102086.13;5069498;28;20486;-57
2024/02/04 00:20:21;;;;;;;17.10;11.85;;;;;;;9.08;100.00;102104.50;5069418;28;20040;-57
2024/02/04 00:22:50;;;;;;;15.82;12.20;;;;;;;9.07;100.00;102101.03;5070366;28;20066;-56
2024/02/04 00:25:19;;;;;;;17.48;12.38;;;;;;;9.06;100.00;102099.31;5067864;28;20051;-57
2024/02/04 00:27:47;;;;;;;18.13;11.25;;;;;;;9.07;100.00;102097.56;5068800;28;20044;-56
2024/02/04 00:30:16;;;;;;;17.55;11.85;;;;;;;9.07;100.00;102097.56;5071874;28;20072;-57
2024/02/04 00:32:46;;;;;;;21.52;13.82;;;;;;;9.04;100.00;102092.41;5071853;28;20502;-57
2024/02/04 00:35:16;;;;;;;21.23;13.23;;;;;;;9.06;100.00;102101.94;5071359;28;20037;-57
2024/02/04 00:37:47;;;;;;;21.48;13.27;;;;;;;9.06;100.00;102107.19;5068138;28;20052;-57
2024/02/04 00:40:15;;;;;;;19.88;13.07;;;;;;;9.09;100.00;102101.84;5068596;28;20040;-56
2024/02/04 00:42:43;;;;;;;19.67;12.65;;;;;;;9.07;100.00;102103.66;5071575;28;20040;-57
2024/02/04 00:45:11;;;;;;;24.05;15.02;;;;;;;9.04;100.00;102113.41;5067227;28;20040;-57
2024/02/04 00:47:39;;;;;;;26.33;16.08;;;;;;;9.01;100.00;102122.25;5064290;28;20550;-57
2024/02/04 00:50:09;;;;;;;28.85;17.50;;;;;;;9.02;100.00;102110.00;5068415;28;20567;-58
2024/02/04 00:52:40;;;;;;;29.70;17.60;;;;;;;9.04;100.00;102113.41;5064069;28;20056;-57
2024/02/04 00:55:08;;;;;;;30.55;19.23;;;;;;;9.01;100.00;102108.28;5068262;28;20063;-57
2024/02/04 00:57:37;;;;;;;33.45;19.98;;;;;;;9.09;100.00;102100.97;5068886;28;20060;-57
2024/02/04 01:00:09;;;;;;;33.17;19.45;;;;;;;9.06;100.00;102103.72;5071449;28;20042;-57
2024/02/04 01:02:37;;;;;;;39.90;20.50;;;;;;;9.05;100.00;102092.38;5071910;28;20051;-57
2024/02/04 01:05:06;;;;;;;39.78;20.05;;;;;;;9.04;100.00;102093.28;5069706;28;20041;-57
2024/02/04 01:07:35;;;;;;;36.72;18.83;;;;;;;9.04;100.00;102092.41;5070050;28;20052;-58
2024/02/04 01:10:05;;;;;;;40.05;20.98;;;;;;;9.03;100.00;102102.06;5071634;28;20082;-57
2024/02/04 01:12:37;;;;;;;37.67;20.02;;;;;;;9.06;100.00;102106.34;5071111;28;20614;-58
2024/02/04 01:15:06;;;;;;;32.40;19.73;;;;;;;9.06;100.00;102103.72;5071517;28;20048;-57
2024/02/04 01:17:34;;;;;;;34.67;20.70;;;;;;;9.08;100.00;102096.63;5068430;28;20057;-57
2024/02/04 01:20:03;;;;;;;36.00;20.65;;;;;;;9.07;100.00;102106.28;5072391;28;20045;-57
2024/02/04 01:22:33;;;;;;;29.92;19.77;;;;;;;9.06;100.00;102106.34;5072610;28;20044;-57
2024/02/04 01:25:01;;;;;;;30.77;17.60;;;;;;;9.07;100.00;102108.06;5073069;28;20032;-57
2024/02/04 01:27:31;;;;;;;30.65;17.27;;;;;;;9.08;100.00;102099.25;5071863;28;20468;-57
2024/02/04 01:29:59;;;;;;;26.15;16.05;;;;;;;9.09;100.00;102106.22;5071191;28;20036;-58
2024/02/04 01:32:27;;;;;;;33.40;17.73;;;;;;;9.07;100.00;102102.81;5071258;28;20517;-58
2024/02/04 01:34:55;;;;;;;27.20;16.60;;;;;;;9.08;100.00;102104.50;5074912;28;20120;-58
2024/02/04 01:37:26;;;;;;;26.92;17.20;;;;;;;9.06;100.00;102101.09;5071293;28;20040;-57
2024/02/04 01:39:54;;;;;;;30.35;17.30;;;;;;;9.08;100.00;102108.00;5071522;28;20040;-57
2024/02/04 01:42:22;;;;;;;28.30;17.02;;;;;;;9.06;100.00;102107.19;5070446;28;20139;-58
2024/02/04 01:44:52;;;;;;;29.88;17.05;;;;;;;9.06;100.00;102099.31;5066720;28;20037;-58
2024/02/04 01:47:20;;;;;;;30.00;17.23;;;;;;;9.09;100.00;102108.84;5070666;28;20133;-57
2024/02/04 01:49:49;;;;;;;28.70;16.60;;;;;;;9.09;100.00;102114.09;5072525;28;20049;-57
2024/02/04 01:52:18;;;;;;;34.58;17.85;;;;;;;9.06;100.00;102112.44;5074154;28;20079;-57
2024/02/04 01:54:47;;;;;;;28.92;17.23;;;;;;;9.03;100.00;102104.69;5074598;28;20517;-58
2024/02/04 01:57:16;;;;;;;35.47;16.48;;;;;;;9.02;100.00;102113.47;5071978;28;20055;-57
2024/02/04 01:59:45;;;;;;;33.17;17.40;;;;;;;9.03;100.00;102109.09;5070849;28;20090;-58
2024/02/04 02:02:14;;;;;;;32.30;15.70;;;;;;;9.03;100.00;102102.06;5070089;28;20060;-57
2024/02/04 02:04:44;;;;;;;30.08;16.42;;;;;;;9.06;100.00;102090.59;5073003;28;20503;-57
2024/02/04 02:07:13;;;;;;;28.45;15.88;;;;;;;9.04;100.00;102093.28;5071766;28;20078;-58
2024/02/04 02:09:41;;;;;;;32.72;15.50;;;;;;;9.04;100.00;102098.53;5070703;28;20056;-57
2024/02/04 02:12:14;;;;;;;26.83;15.13;;;;;;;9.04;100.00;102101.16;5070488;28;20055;-57
2024/02/04 02:14:45;;;;;;;27.90;15.27;;;;;;;9.05;100.00;102105.50;5069872;28;20056;-57
2024/02/04 02:17:21;;;;;;;28.20;15.93;;;;;;;9.03;100.00;102096.81;5068759;28;20041;-58
2024/02/04 02:19:55;;;;;;;28.98;14.85;;;;;;;9.04;100.00;102102.91;5068071;28;20198;-57
2024/02/04 02:22:30;;;;;;;28.67;13.45;;;;;;;9.04;100.00;102103.78;5069785;28;20044;-57
2024/02/04 02:25:00;;;;;;;27.98;14.10;;;;;;;9.01;100.00;102106.50;5068188;28;20106;-57
2024/02/04 02:27:28;;;;;;;27.48;14.32;;;;;;;9.01;100.00;102106.50;5070658;28;20048;-57
2024/02/04 02:29:57;;;;;;;23.80;13.38;;;;;;;9.02;100.00;102107.38;5073536;28;20721;-57
2024/02/04 02:32:25;;;;;;;27.25;12.65;;;;;;;8.99;100.00;102105.72;5071051;28;20133;-57
2024/02/04 02:34:56;;;;;;;24.25;13.27;;;;;;;9.02;100.00;102099.50;5067043;28;20459;-58
2024/02/04 02:37:30;;;;;;;23.25;12.43;;;;;;;9.02;100.00;102100.34;5070500;28;20044;-57
2024/02/04 02:40:06;;;;;;;22.52;12.50;;;;;;;9.07;100.00;102092.31;5069680;28;20036;-57
2024/02/04 02:42:37;;;;;;;22.17;11.77;;;;;;;9.08;100.00;102094.00;5069871;28;20048;-57
2024/02/04 02:45:07;;;;;;;20.77;11.85;;;;;;;9.06;100.00;102085.34;5071740;28;20040;-57
2024/02/04 02:47:36;;;;;;;29.60;12.07;;;;;;;9.05;100.00;102075.75;5072623;28;20052;-57
2024/02/04 02:50:06;;;;;;;26.80;12.65;;;;;;;8.99;100.00;102083.88;5071201;28;20036;-57
2024/02/04 02:52:35;;;;;;;25.67;11.52;;;;;;;8.95;100.00;102077.88;5073737;28;20040;-58
2024/02/04 02:55:07;;;;;;;24.33;11.50;;;;;;;8.97;100.00;102083.91;5073114;28;20484;-58
2024/02/04 02:57:36;;;;;;;19.58;11.07;;;;;;;8.95;100.00;102076.09;5071319;28;20072;-58
2024/02/04 03:00:06;;;;;;;24.55;11.70;;;;;;;8.94;100.00;102071.78;5072681;28;20454;-57
2024/02/04 03:02:34;;;;;;;22.17;10.90;;;;;;;8.95;100.00;102072.63;5070934;28;20388;-57
2024/02/04 03:05:02;;;;;;;20.30;11.52;;;;;;;8.96;100.00;102075.19;5071983;28;20055;-57
2024/02/04 03:07:30;;;;;;;22.83;10.82;;;;;;;8.95;100.00;102077.88;5069762;28;20050;-58
2024/02/04 03:09:58;;;;;;;22.05;10.70;;;;;;;8.94;100.00;102082.28;5070647;28;20047;-58
2024/02/04 03:12:28;;;;;;;23.27;12.00;;;;;;;8.91;100.00;102074.50;5070001;28;20059;-57
2024/02/04 03:14:55;;;;;;;20.58;11.80;;;;;;;8.92;100.00;102073.59;5069058;28;20121;-58
2024/02/04 03:17:23;;;;;;;19.10;11.43;;;;;;;8.91;100.00;102066.63;5069428;28;20578;-57
2024/02/04 03:19:54;;;;;;;20.73;11.57;;;;;;;8.94;100.00;102065.66;5069899;28;20401;-57
2024/02/04 03:22:23;;;;;;;23.05;11.95;;;;;;;8.87;100.00;102057.19;5069440;28;20110;-57
2024/02/04 03:24:53;;;;;;;22.52;12.10;;;;;;;8.98;100.00;102072.50;5072403;28;20052;-58
2024/02/04 03:27:21;;;;;;;25.38;11.48;;;;;;;8.93;100.00;102084.94;5069640;28;20044;-58
2024/02/04 03:29:51;;;;;;;18.30;11.32;;;;;;;8.92;100.00;102078.84;5070714;28;20536;-58
2024/02/04 03:32:19;;;;;;;22.33;12.95;;;;;;;8.88;100.00;102072.00;5073152;28;20057;-57
2024/02/04 03:34:47;;;;;;;23.95;11.27;;;;;;;8.89;100.00;102068.50;5072461;28;20836;-57
2024/02/04 03:37:15;;;;;;;21.55;12.15;;;;;;;8.89;100.00;102078.97;5069969;28;20131;-57
2024/02/04 03:39:43;;;;;;;26.80;12.88;;;;;;;8.87;100.00;102079.94;5069596;28;20578;-57
2024/02/04 03:42:12;;;;;;;24.77;12.98;;;;;;;8.85;100.00;102072.16;5069811;28;20041;-56
2024/02/04 03:44:43;;;;;;;33.78;14.63;;;;;;;8.82;100.00;102074.91;5070124;28;20043;-57
2024/02/04 03:47:12;;;;;;;26.48;15.45;;;;;;;8.83;100.00;102071.31;5068621;28;20578;-57
2024/02/04 03:49:41;;;;;;;30.02;18.48;;;;;;;8.85;100.00;102077.38;5069286;28;20132;-56
2024/02/04 03:52:09;;;;;;;33.20;18.90;;;;;;;8.81;100.00;102075.78;5072204;28;20044;-57
2024/02/04 03:54:40;;;;;;;31.33;18.58;;;;;;;8.79;100.00;102082.84;5069093;28;20044;-57
2024/02/04 03:57:08;;;;;;;32.47;15.45;;;;;;;8.76;100.00;102101.34;5068627;28;20087;-58
2024/02/04 03:59:36;;;;;;;25.73;14.07;;;;;;;8.73;100.00;102093.59;5068944;28;20114;-58
2024/02/04 04:02:05;;;;;;;26.42;13.30;;;;;;;8.70;100.00;102088.44;5070745;28;20036;-57
2024/02/04 04:04:34;;;;;;;20.27;11.07;;;;;;;8.67;100.00;102106.91;5072069;28;20059;-58
2024/02/04 04:07:03;;;;;;;21.70;11.30;;;;;;;8.66;100.00;102107.81;5068809;28;20444;-57
2024/02/04 04:09:32;;;;;;;21.17;11.02;;;;;;;8.63;100.00;102114.91;5068111;28;20064;-57
2024/02/04 04:12:00;;;;;;;21.70;10.80;;;;;;;8.65;100.00;102121.88;5068682;28;20137;-58
2024/02/04 04:14:28;;;;;;;18.20;9.48;;;;;;;8.63;100.00;102121.94;5067899;28;20044;-57
2024/02/04 04:16:56;;;;;;;18.95;9.45;;;;;;;8.61;100.00;102108.00;5071540;28;20110;-58
2024/02/04 04:19:25;;;;;;;20.00;9.65;;;;;;;8.61;100.00;102114.09;5072436;28;20463;-57
2024/02/04 04:21:56;;;;;;;20.70;8.93;;;;;;;8.58;100.00;102095.03;5073078;28;20127;-58
2024/02/04 04:24:25;;;;;;;22.10;9.35;;;;;;;8.61;100.00;102084.41;5072815;28;20488;-57
2024/02/04 04:26:53;;;;;;;20.17;9.73;;;;;;;8.58;100.00;102071.41;5072074;28;20043;-57
2024/02/04 04:29:21;;;;;;;19.73;9.75;;;;;;;8.56;100.00;102070.59;5072340;28;20056;-57
2024/02/04 04:31:49;;;;;;;20.98;9.98;;;;;;;8.58;100.00;102063.56;5068948;28;20373;-57
2024/02/04 04:34:19;;;;;;;17.85;10.07;;;;;;;8.57;100.00;102059.22;5069151;28;20048;-57
2024/02/04 04:36:47;;;;;;;20.40;9.57;;;;;;;8.60;100.00;102045.97;5069254;28;20114;-57
2024/02/04 04:39:17;;;;;;;23.02;10.75;;;;;;;8.60;100.00;102054.72;5069702;28;20048;-58
2024/02/04 04:41:46;;;;;;;19.48;11.02;;;;;;;8.56;100.00;102062.75;5069274;28;20049;-57
2024/02/04 04:44:14;;;;;;;18.25;10.75;;;;;;;8.58;100.00;102058.31;5068029;28;20064;-57
2024/02/04 04:46:45;;;;;;;20.27;11.75;;;;;;;8.58;100.00;102053.91;5071704;28;20060;-57
2024/02/04 04:49:13;;;;;;;22.42;10.93;;;;;;;8.56;100.00;102058.38;5067102;28;20052;-57
2024/02/04 04:51:45;;;;;;;20.73;10.50;;;;;;;8.54;100.00;102072.44;5068816;28;20443;-57
2024/02/04 04:54:13;;;;;;;21.58;10.73;;;;;;;8.52;100.00;102072.50;5070838;28;20119;-57
2024/02/04 04:56:43;;;;;;;22.25;10.88;;;;;;;8.55;100.00;102064.50;5071251;28;20056;-56
2024/02/04 04:59:11;;;;;;;21.42;10.95;;;;;;;8.51;100.00;102055.06;5068713;28;20507;-57
2024/02/04 05:01:46;;;;;;;20.50;10.82;;;;;;;8.52;100.00;102045.41;5068399;28;20445;-57
2024/02/04 05:04:14;;;;;;;27.20;12.20;;;;;;;8.49;100.00;102035.03;5072288;28;20045;-57
2024/02/04 05:06:43;;;;;;;23.63;11.75;;;;;;;8.46;100.00;102044.72;5070107;28;20048;-57
2024/02/04 05:09:11;;;;;;;27.67;12.35;;;;;;;8.49;100.00;102033.25;5069097;28;20051;-57
2024/02/04 05:11:39;;;;;;;27.08;13.13;;;;;;;8.47;100.00;102042.97;5068656;28;20049;-57
2024/02/04 05:14:09;;;;;;;22.48;12.38;;;;;;;8.46;100.00;102038.63;5070221;28;20423;-57
2024/02/04 05:16:37;;;;;;;24.20;12.98;;;;;;;8.43;100.00;102042.19;5068489;28;20059;-57
2024/02/04 05:19:05;;;;;;;20.98;12.27;;;;;;;8.45;100.00;102053.53;5067733;28;20041;-57
2024/02/04 05:21:33;;;;;;;24.92;13.20;;;;;;;8.41;100.00;102049.28;5070245;28;20094;-58
2024/02/04 05:24:02;;;;;;;23.33;12.10;;;;;;;8.40;100.00;102037.06;5060384;28;20037;-57
2024/02/04 05:26:30;;;;;;;22.63;11.90;;;;;;;8.35;100.00;102032.91;5068938;28;20044;-57
2024/02/04 05:28:58;;;;;;;18.77;10.98;;;;;;;8.32;100.00;102030.38;5071514;28;20048;-57
2024/02/04 05:31:27;;;;;;;20.40;10.48;;;;;;;8.29;100.00;102037.47;5072225;28;20480;-57
2024/02/04 05:33:57;;;;;;;20.85;10.57;;;;;;;8.27;100.00;102031.41;5072090;28;20041;-57
2024/02/04 05:36:25;;;;;;;20.60;10.65;;;;;;;8.32;100.00;102030.38;5072059;28;20380;-58
2024/02/04 05:38:53;;;;;;;20.73;10.20;;;;;;;8.26;100.00;102037.56;5071832;28;20091;-58
2024/02/04 05:41:24;;;;;;;18.95;9.93;;;;;;;8.28;100.00;102048.00;5071585;28;20099;-58
2024/02/04 05:43:52;;;;;;;18.83;9.07;;;;;;;8.22;100.00;102049.09;5071885;28;20045;-58
2024/02/04 05:46:20;;;;;;;20.00;9.55;;;;;;;8.25;100.00;102056.81;5068712;28;20057;-58
2024/02/04 05:48:50;;;;;;;16.80;9.05;;;;;;;8.27;100.00;102057.59;5068542;28;20392;-57
2024/02/04 05:51:19;;;;;;;17.77;9.52;;;;;;;8.25;100.00;102048.97;5068541;28;20495;-56
2024/02/04 05:53:47;;;;;;;19.83;9.48;;;;;;;8.23;100.00;102035.03;5069236;28;20048;-58
2024/02/04 05:56:15;;;;;;;16.45;9.38;;;;;;;8.18;100.00;102031.75;5071533;28;20476;-57
2024/02/04 05:58:43;;;;;;;16.48;9.05;;;;;;;8.16;100.00;102020.47;5074321;28;20736;-56
2024/02/04 06:01:11;;;;;;;18.33;9.55;;;;;;;8.15;100.00;102021.38;5075292;28;20052;-57
2024/02/04 06:03:39;;;;;;;17.33;9.18;;;;;;;8.14;100.00;102009.19;5074884;28;20072;-57
2024/02/04 06:06:09;;;;;;;16.02;8.63;;;;;;;8.16;100.00;101990.78;5072304;28;20119;-57
2024/02/04 06:08:37;;;;;;;16.27;8.45;;;;;;;8.14;100.00;101996.09;5072371;28;20135;-57
2024/02/04 06:11:05;;;;;;;18.63;8.60;;;;;;;8.13;100.00;102008.31;5071910;28;20566;-58
2024/02/04 06:13:33;;;;;;;18.15;9.00;;;;;;;8.16;100.00;102004.75;5074733;28;20078;-57
2024/02/04 06:16:01;;;;;;;17.83;8.55;;;;;;;8.17;100.00;101997.75;5074841;28;20569;-57
2024/02/04 06:18:29;;;;;;;16.15;8.68;;;;;;;8.15;100.00;102003.03;5072043;28;20076;-57
2024/02/04 06:20:58;;;;;;;24.15;9.65;;;;;;;8.16;100.00;102001.28;5070903;28;20098;-57
2024/02/04 06:23:27;;;;;;;21.38;9.48;;;;;;;8.15;100.00;102003.03;5071917;28;20430;-57
2024/02/04 06:25:55;;;;;;;19.63;9.60;;;;;;;8.13;100.00;102010.94;5071929;28;20136;-57
2024/02/04 06:28:23;;;;;;;20.58;9.02;;;;;;;8.19;100.00;101996.75;5072253;28;20052;-57
2024/02/04 06:30:53;;;;;;;15.77;9.73;;;;;;;8.18;100.00;101981.97;5072926;28;20098;-56
2024/02/04 06:33:22;;;;;;;21.50;9.57;;;;;;;8.16;100.00;102002.13;5071714;28;20059;-56
2024/02/04 06:35:50;;;;;;;22.00;10.15;;;;;;;8.16;100.00;102012.59;5070262;28;20040;-56
2024/02/04 06:38:19;;;;;;;19.73;9.77;;;;;;;8.10;100.00;101997.13;5071709;28;20044;-57
2024/02/04 06:40:48;;;;;;;20.52;9.80;;;;;;;8.07;100.00;101982.38;5071368;28;20054;-56
2024/02/04 06:43:16;;;;;;;20.05;8.88;;;;;;;8.06;100.00;101982.41;5072591;28;20044;-57
2024/02/04 06:45:44;;;;;;;16.33;9.63;;;;;;;8.08;100.00;101977.97;5068657;28;20794;-57
2024/02/04 06:48:14;;;;;;;18.88;9.98;;;;;;;8.10;100.00;101981.41;5071302;28;20131;-56
2024/02/04 06:50:43;;;;;;;20.92;10.18;;;;;;;8.11;100.00;101980.47;5072303;28;20519;-56
2024/02/04 06:53:11;;;;;;;19.40;10.60;;;;;;;8.13;100.00;101963.78;5071233;28;20098;-57
2024/02/04 06:55:40;;;;;;;20.45;12.45;;;;;;;8.15;100.00;101968.13;5074067;28;20041;-57
2024/02/04 06:58:11;;;;;;;27.08;16.02;;;;;;;8.16;100.00;101962.81;5073954;28;20052;-56
2024/02/04 07:00:39;;;;;;;29.05;17.02;;;;;;;8.16;100.00;101991.63;5072027;28;20060;-57
2024/02/04 07:03:07;;;;;;;30.98;18.02;;;;;;;8.19;100.00;101986.28;5071159;28;20128;-56
2024/02/04 07:05:35;;;;;;;31.10;18.85;;;;;;;8.21;100.00;101987.09;5070738;28;20044;-56
2024/02/04 07:08:04;;;;;;;28.27;18.77;;;;;;;8.25;100.00;101988.69;5073935;28;20072;-57
2024/02/04 07:10:32;;;;;;;32.67;18.40;;;;;;;8.26;100.00;101986.91;5073138;28;20373;-56
2024/02/04 07:13:00;;;;;;;30.00;17.98;;;;;;;8.24;100.00;101986.97;5069706;28;20177;-57
2024/02/04 07:15:30;;;;;;;31.08;17.55;;;;;;;8.25;100.00;101985.22;5071384;28;20153;-57
2024/02/04 07:17:58;;;;;;;31.73;18.30;;;;;;;8.28;100.00;101996.44;5073537;28;20072;-57
2024/02/04 07:20:26;;;;;;;29.35;17.67;;;;;;;8.31;100.00;101994.63;5070834;28;20080;-57
2024/02/04 07:22:57;;;;;;;28.23;18.02;;;;;;;8.31;100.00;101984.13;5069364;28;20114;-57
2024/02/04 07:25:25;;;;;;;30.02;17.52;;;;;;;8.29;100.00;101976.34;5072041;28;20053;-57
2024/02/04 07:27:54;;;;;;;24.60;17.05;;;;;;;8.33;100.00;101979.66;5074081;28;20047;-56
2024/02/04 07:30:22;;;;;;;26.60;16.60;;;;;;;8.33;100.00;101967.44;5073696;28;20090;-57
2024/02/04 07:32:52;;;;;;;29.40;17.25;;;;;;;8.33;100.00;101966.56;5071183;28;20519;-56
2024/02/04 07:35:20;;;;;;;31.08;16.67;;;;;;;8.36;100.00;101976.97;5070791;28;20049;-57
2024/02/04 07:37:50;;;;;;;31.83;16.67;;;;;;;8.36;100.00;101980.41;5069320;28;20067;-57
2024/02/04 07:40:19;;;;;;;27.20;15.50;;;;;;;8.38;100.00;101967.25;5069803;28;20399;-58
2024/02/04 07:42:47;;;;;;;28.70;15.98;;;;;;;8.40;100.00;101979.38;5071821;28;20047;-57
2024/02/04 07:45:15;;;;;;;28.92;15.95;;;;;;;8.40;100.00;101973.31;5070413;28;20046;-57
2024/02/04 07:47:43;;;;;;;31.33;16.40;;;;;;;8.41;100.00;101978.50;5073122;28;20044;-57
2024/02/04 07:50:13;;;;;;;26.85;15.23;;;;;;;8.44;100.00;101982.75;5069905;28;20513;-56
2024/02/04 07:52:41;;;;;;;25.38;14.60;;;;;;;8.43;100.00;101981.88;5071316;28;20131;-57
2024/02/04 07:55:12;;;;;;;28.13;14.52;;;;;;;8.44;100.00;101982.75;5072976;28;20048;-56
2024/02/04 07:57:40;;;;;;;26.17;15.18;;;;;;;8.49;100.00;101990.47;5072287;28;20037;-55
2024/02/04 08:00:10;;;;;;;23.45;14.02;;;;;;;8.49;100.00;101980.81;5072992;28;20475;-56
2024/02/04 08:02:39;;;;;;;28.45;13.20;;;;;;;8.51;100.00;101972.91;5072244;28;20053;-56
2024/02/04 08:05:07;;;;;;;20.77;11.63;;;;;;;8.56;100.00;101982.31;5069765;28;20156;-56
2024/02/04 08:07:38;;;;;;;20.30;11.85;;;;;;;8.53;100.00;101977.19;5071633;28;20041;-56
2024/02/04 08:10:07;;;;;;;22.30;11.50;;;;;;;8.55;100.00;101980.59;5072746;28;20452;-56
2024/02/04 08:12:35;;;;;;;20.08;11.63;;;;;;;8.55;100.00;101975.38;5071416;28;20056;-56
2024/02/04 08:15:04;;;;;;;23.95;11.57;;;;;;;8.58;100.00;101980.47;5070424;28;20132;-56
2024/02/04 08:17:33;;;;;;;21.25;10.55;;;;;;;8.57;100.00;101984.00;5064052;28;20040;-56
2024/02/04 08:20:03;;;;;;;20.58;10.05;;;;;;;8.58;100.00;101967.38;5068767;28;20107;-56
2024/02/04 08:22:32;;;;;;;19.38;10.30;;;;;;;8.56;100.00;101976.22;5070295;28;20440;-56
2024/02/04 08:25:02;;;;;;;19.20;10.50;;;;;;;8.58;100.00;101964.75;5071788;28;20379;-56
2024/02/04 08:27:31;;;;;;;25.58;11.48;;;;;;;8.59;100.00;101966.47;5067720;28;20048;-56
2024/02/04 08:29:59;;;;;;;22.67;10.10;;;;;;;8.62;100.00;101965.50;5067213;28;20120;-56
2024/02/04 08:32:27;;;;;;;24.02;10.50;;;;;;;8.64;100.00;101971.50;5069309;28;20048;-56
2024/02/04 08:34:55;;;;;;;20.20;8.85;;;;;;;8.68;100.00;101964.41;5071343;28;20072;-56
2024/02/04 08:37:23;;;;;;;18.27;8.90;;;;;;;8.67;100.00;101970.53;5070177;28;20052;-56
2024/02/04 08:39:55;;;;;;;19.85;9.60;;;;;;;8.66;100.00;101964.47;5071372;28;20565;-56
2024/02/04 08:42:28;;;;;;;18.75;9.50;;;;;;;8.67;100.00;101973.16;5072001;28;20487;-56
2024/02/04 08:44:56;;;;;;;20.05;9.43;;;;;;;8.68;100.00;101972.25;5068579;28;20499;-56
2024/02/04 08:47:24;;;;;;;22.40;9.57;;;;;;;8.64;100.00;101966.28;5067606;28;20115;-56
2024/02/04 08:49:55;;;;;;;18.92;9.13;;;;;;;8.66;100.00;101963.59;5067095;28;20047;-56
2024/02/04 08:52:24;;;;;;;19.85;9.43;;;;;;;8.64;100.00;101945.28;5068162;28;20086;-56
2024/02/04 08:54:52;;;;;;;19.98;8.13;;;;;;;8.61;100.00;101948.03;5067765;28;20054;-56
2024/02/04 08:57:21;;;;;;;17.17;8.98;;;;;;;8.62;100.00;101945.34;5068034;28;20101;-56
2024/02/04 08:59:50;;;;;;;18.48;7.75;;;;;;;8.65;100.00;101954.03;5067130;28;20048;-56
2024/02/04 09:02:19;;;;;;;14.60;7.25;;;;;;;8.63;100.00;101954.94;5067939;28;20048;-56
2024/02/04 09:04:47;;;;;;;17.08;7.40;;;;;;;8.62;100.00;101945.34;5067256;28;20045;-56
2024/02/04 09:07:15;;;;;;;13.07;7.50;;;;;;;8.60;100.00;101955.06;5066779;28;20545;-56
2024/02/04 09:09:43;;;;;;;17.70;6.65;;;;;;;8.64;100.00;101953.16;5069282;28;20040;-56
2024/02/04 09:12:11;;;;;;;12.85;6.47;;;;;;;8.61;100.00;101955.91;5071032;28;20543;-56
2024/02/04 09:14:40;;;;;;;15.30;6.72;;;;;;;8.61;100.00;101955.91;5070829;28;20049;-56
2024/02/04 09:17:09;;;;;;;13.23;6.60;;;;;;;8.59;100.00;101957.75;5071291;28;20059;-56
2024/02/04 09:19:38;;;;;;;14.68;6.10;;;;;;;8.59;100.00;101944.66;5070975;28;20044;-56
2024/02/04 09:22:10;;;;;;;13.18;6.53;;;;;;;8.59;100.00;101942.03;5071257;28;20064;-56
2024/02/04 09:24:41;;;;;;;11.30;6.35;;;;;;;8.63;100.00;101938.38;5073284;28;20498;-56
2024/02/04 09:27:09;;;;;;;15.45;6.50;;;;;;;8.61;100.00;101948.88;5071335;28;20497;-56
2024/02/04 09:29:37;;;;;;;14.32;7.07;;;;;;;8.62;100.00;101955.84;5074894;28;20051;-56
2024/02/04 09:32:06;;;;;;;14.40;7.22;;;;;;;8.59;100.00;101955.13;5075030;28;20400;-56
2024/02/04 09:34:36;;;;;;;15.25;7.30;;;;;;;8.64;100.00;101963.66;5071002;28;20047;-56
2024/02/04 09:37:04;;;;;;;15.70;7.55;;;;;;;8.64;100.00;101961.03;5070873;28;20131;-56
2024/02/04 09:39:33;;;;;;;15.68;7.72;;;;;;;8.67;100.00;101967.91;5071050;28;20064;-56
2024/02/04 09:42:01;;;;;;;13.68;7.82;;;;;;;8.69;100.00;101961.72;5071148;28;20047;-56
2024/02/04 09:44:32;;;;;;;19.00;9.07;;;;;;;8.70;100.00;101959.94;5069367;28;20051;-56
2024/02/04 09:47:00;;;;;;;15.15;8.05;;;;;;;8.75;100.00;101966.72;5069013;28;20048;-56
2024/02/04 09:49:32;;;;;;;15.90;8.60;;;;;;;8.78;100.00;101963.09;5071082;28;20069;-56
2024/02/04 09:52:08;;;;;;;15.13;8.55;;;;;;;8.80;100.00;101962.13;5071304;28;20036;-56
2024/02/04 09:54:43;;;;;;;13.45;7.93;;;;;;;8.84;100.00;101952.38;5071626;28;21124;-56
2024/02/04 09:57:12;;;;;;;14.88;7.90;;;;;;;8.85;100.00;101961.09;5074603;28;20479;-56
2024/02/04 09:59:40;;;;;;;13.85;7.22;;;;;;;8.90;100.00;101959.13;5072143;28;20063;-56
2024/02/04 10:02:09;;;;;;;14.40;7.15;;;;;;;8.93;100.00;101964.25;5070313;28;20040;-56
2024/02/04 10:04:37;;;;;;;14.43;7.68;;;;;;;8.95;100.00;101958.03;5071052;28;20110;-56
2024/02/04 10:07:07;;;;;;;12.63;7.50;;;;;;;9.01;100.00;101969.19;5071355;28;20087;-56
2024/02/04 10:09:35;;;;;;;13.00;7.35;;;;;;;9.07;100.00;101969.81;5073934;28;20048;-58
2024/02/04 10:12:04;;;;;;;14.88;6.75;;;;;;;9.08;100.00;101966.28;5074847;28;20127;-58
2024/02/04 10:14:32;;;;;;;9.27;6.07;;;;;;;9.13;100.00;101966.06;5073758;28;20037;-57
2024/02/04 10:17:01;;;;;;;15.02;6.45;;;;;;;9.18;100.00;101968.53;5073241;28;20045;-57
2024/02/04 10:19:29;;;;;;;11.68;5.93;;;;;;;9.23;100.00;101971.78;5073813;28;20040;-57
2024/02/04 10:22:01;;;;;;;10.75;5.57;;;;;;;9.26;100.00;101966.44;5073872;28;20102;-58
2024/02/04 10:24:30;;;;;;;13.30;5.27;;;;;;;9.29;100.00;101966.31;5070879;28;20568;-57
2024/02/04 10:26:59;;;;;;;10.80;5.50;;;;;;;9.35;100.00;101973.06;5069943;28;20881;-57
2024/02/04 10:29:30;;;;;;;11.73;5.15;;;;;;;9.39;100.00;101962.34;5069677;28;20043;-58
2024/02/04 10:31:58;;;;;;;10.52;5.30;;;;;;;9.43;100.00;101968.34;5069446;28;20534;-57
2024/02/04 10:34:27;;;;;;;8.02;5.28;;;;;;;9.45;100.00;101963.88;5070617;28;20506;-57
2024/02/04 10:36:57;;;;;;;8.98;5.10;;;;;;;9.49;100.00;101965.47;5072459;28;20480;-57
2024/02/04 10:39:25;;;;;;;8.55;4.90;;;;;;;9.48;100.00;101971.63;5069637;28;20059;-57
2024/02/04 10:41:56;;;;;;;11.10;4.68;;;;;;;9.50;100.00;101969.78;5069770;28;20083;-57
2024/02/04 10:44:26;;;;;;;8.70;4.32;;;;;;;9.54;100.00;101968.72;5069351;28;20558;-57
2024/02/04 10:46:58;;;;;;;12.60;4.60;;;;;;;9.58;100.00;101978.19;5066903;28;20032;-57
2024/02/04 10:49:27;;;;;;;11.05;4.18;;;;;;;9.60;100.00;101970.25;5070588;28;20033;-57
2024/02/04 10:51:58;;;;;;;11.02;4.57;;;;;;;9.65;100.00;101965.63;5069239;28;20446;-57
2024/02/04 10:54:29;;;;;;;13.38;3.80;;;;;;;9.68;100.00;101960.28;5068793;28;20057;-57
2024/02/04 10:57:06;;;;;;;11.88;4.10;;;;;;;9.73;100.00;101957.44;5066787;28;20454;-57
2024/02/04 10:59:35;;;;;;;8.43;3.38;;;;;;;9.78;100.00;101958.09;5068917;28;20054;-57
2024/02/04 11:02:06;;;;;;;10.55;4.03;;;;;;;9.77;100.00;101970.34;5073564;28;20040;-57
2024/02/04 11:04:35;;;;;;;9.68;3.58;;;;;;;9.81;100.00;101971.09;5072733;28;20040;-57
2024/02/04 11:07:05;;;;;;;9.98;3.10;;;;;;;9.81;100.00;101965.81;5069054;28;20052;-57
2024/02/04 11:09:33;;;;;;;9.98;3.10;;;;;;;9.82;100.00;101962.28;5072871;28;20048;-57
2024/02/04 11:12:07;;;;;;;8.98;2.72;;;;;;;9.86;100.00;101955.09;5069267;28;20054;-56
2024/02/04 11:14:38;;;;;;;5.88;2.00;;;;;;;9.87;100.00;101955.06;5067032;28;20048;-48
2024/02/04 11:17:22;;;;;;;6.85;2.45;;;;;;;9.87;100.00;101955.06;5070067;28;20055;-50
2024/02/04 11:20:04;;;;;;;8.13;2.30;;;;;;;9.86;100.00;101965.63;5070019;28;20047;-47